createdAt,value
2023-01-13T00:01:49.485Z,99909.22
2023-01-13T00:04:53.133Z,99910.88
2023-01-13T00:07:56.872Z,99904.66
2023-01-13T00:11:00.686Z,99914.38
2023-01-13T00:14:05.941Z,99910.69
2023-01-13T00:17:09.703Z,99909.84
2023-01-13T00:20:14.450Z,99907.94
2023-01-13T00:23:18.158Z,99908.34
2023-01-13T00:26:24.206Z,99910.47
2023-01-13T00:29:29.242Z,99906.06
2023-01-13T00:32:32.754Z,99905.28
2023-01-13T00:35:36.418Z,99912.09
2023-01-13T00:38:43.067Z,99905.59
2023-01-13T00:42:04.311Z,99914.94
2023-01-13T00:45:10.211Z,99901.00
2023-01-13T00:48:13.930Z,99902.50
2023-01-13T00:51:19.391Z,99902.22
2023-01-13T00:54:22.967Z,99901.97
2023-01-13T00:57:26.382Z,99903.53
2023-01-13T01:00:31.420Z,99900.06
2023-01-13T01:03:35.271Z,99900.25
2023-01-13T01:06:38.981Z,99899.63
2023-01-13T01:09:42.536Z,99897.28
2023-01-13T01:12:46.113Z,99896.19
2023-01-13T01:15:50.971Z,99894.44
2023-01-13T01:18:55.770Z,99892.13
2023-01-13T01:21:59.267Z,99893.38
2023-01-13T01:25:02.840Z,99890.09
2023-01-13T01:28:06.350Z,99896.19
2023-01-13T01:31:14.199Z,99892.44
2023-01-13T01:34:17.831Z,99892.44
2023-01-13T01:37:21.330Z,99888.78
2023-01-13T01:40:24.888Z,99884.66
2023-01-13T01:44:02.782Z,99884.84
2023-01-13T01:47:08.017Z,99884.81
2023-01-13T01:50:12.924Z,99887.16
2023-01-13T01:53:22.532Z,99882.41
2023-01-13T01:56:26.059Z,99880.81
2023-01-13T01:59:31.539Z,99880.03
2023-01-13T02:02:37.990Z,99883.88
2023-01-13T02:05:41.453Z,99887.19
2023-01-13T02:08:45.440Z,99887.44
2023-01-13T02:12:06.092Z,99889.53
2023-01-13T02:15:13.232Z,99888.28
2023-01-13T02:18:39.797Z,99885.84
2023-01-13T02:22:15.676Z,99889.50
2023-01-13T02:25:44.879Z,99890.31
2023-01-13T02:29:25.753Z,99891.75
2023-01-13T02:32:35.261Z,99886.41
2023-01-13T02:35:46.268Z,99891.75
2023-01-13T02:38:53.467Z,99895.50
2023-01-13T02:42:21.289Z,99903.53
2023-01-13T02:45:30.932Z,99893.19
2023-01-13T02:48:38.864Z,99909.19
2023-01-13T02:51:45.757Z,99908.88
2023-01-13T02:54:56.053Z,99907.19
2023-01-13T02:58:03.139Z,99909.81
2023-01-13T03:01:06.994Z,99911.22
2023-01-13T03:04:16.643Z,99915.84
2023-01-13T03:07:50.427Z,99909.16
2023-01-13T03:11:09.952Z,99910.47
2023-01-13T03:14:25.283Z,99907.69
2023-01-13T03:17:34.067Z,99905.78
2023-01-13T03:20:45.613Z,99906.28
2023-01-13T03:23:53.064Z,99915.25
2023-01-13T03:27:03.785Z,99905.25
2023-01-13T03:30:11.182Z,99910.69
2023-01-13T03:33:19.209Z,99908.38
2023-01-13T03:36:27.639Z,99912.06
2023-01-13T03:39:35.885Z,99914.56
2023-01-13T03:42:41.530Z,99908.09
2023-01-13T03:45:48.285Z,99912.06
2023-01-13T03:48:55.235Z,99922.50
2023-01-13T03:52:06.966Z,99920.28
2023-01-13T03:55:14.096Z,99920.47
2023-01-13T03:58:21.015Z,99922.97
2023-01-13T04:01:28.372Z,99926.50
2023-01-13T04:04:36.589Z,99925.81
2023-01-13T04:07:51.958Z,99927.91
2023-01-13T04:11:02.453Z,99930.44
2023-01-13T04:14:08.383Z,99937.13
2023-01-13T04:17:12.580Z,99935.97
2023-01-13T04:20:16.495Z,99943.63
2023-01-13T04:23:23.011Z,99949.78
2023-01-13T04:26:26.611Z,99945.53
2023-01-13T04:29:30.406Z,99941.03
2023-01-13T04:32:33.935Z,99946.28
2023-01-13T04:35:38.331Z,99948.78
2023-01-13T04:38:43.397Z,99940.59
2023-01-13T04:42:02.886Z,99948.28
2023-01-13T04:45:07.349Z,99948.63
2023-01-13T04:48:11.060Z,99950.06
2023-01-13T04:51:14.509Z,99948.72
2023-01-13T04:54:19.540Z,99948.03
2023-01-13T04:57:23.176Z,99954.41
2023-01-13T05:00:26.685Z,99955.59
2023-01-13T05:03:30.253Z,99954.66
2023-01-13T05:06:34.074Z,99962.22
2023-01-13T05:09:39.016Z,99959.47
2023-01-13T05:13:00.259Z,99957.50
2023-01-13T05:16:20.902Z,99966.34
2023-01-13T05:19:24.542Z,99973.19
2023-01-13T05:22:45.374Z,99972.13
2023-01-13T05:25:51.020Z,99975.66
2023-01-13T05:28:54.578Z,99983.56
2023-01-13T05:31:58.173Z,99977.09
2023-01-13T05:35:01.709Z,99976.22
2023-01-13T05:38:05.362Z,99978.25
2023-01-13T05:41:28.840Z,99985.72
2023-01-13T05:44:32.542Z,99986.88
2023-01-13T05:47:36.473Z,99986.31
2023-01-13T05:50:40.327Z,99987.94
2023-01-13T05:53:43.911Z,99989.50
2023-01-13T05:56:48.980Z,99992.09
2023-01-13T05:59:52.574Z,99992.53
2023-01-13T06:02:56.247Z,99991.69
2023-01-13T06:06:02.005Z,99992.69
2023-01-13T06:09:06.526Z,99997.16
2023-01-13T06:12:13.336Z,99995.03
2023-01-13T06:15:17.254Z,100006.63
2023-01-13T06:18:20.982Z,100006.16
2023-01-13T06:21:24.753Z,100010.25
2023-01-13T06:24:28.485Z,100011.78
2023-01-13T06:27:33.722Z,100012.53
2023-01-13T06:30:44.102Z,100007.06
2023-01-13T06:33:52.136Z,100017.59
2023-01-13T06:36:57.526Z,100016.44
2023-01-13T06:40:04.332Z,100017.13
2023-01-13T06:43:18.446Z,100017.59
2023-01-13T06:46:22.191Z,100018.13
2023-01-13T06:49:26.202Z,100023.47
2023-01-13T06:52:30.724Z,100025.66
2023-01-13T06:55:34.374Z,100028.28
2023-01-13T06:58:39.523Z,100035.06
2023-01-13T07:01:43.436Z,100030.41
2023-01-13T07:04:47.838Z,100040.09
2023-01-13T07:07:51.513Z,100038.50
2023-01-13T07:10:55.601Z,100034.28
2023-01-13T07:14:20.055Z,100041.19
2023-01-13T07:17:25.551Z,100042.56
2023-01-13T07:20:29.410Z,100041.97
2023-01-13T07:23:35.545Z,100041.47
2023-01-13T07:26:39.270Z,100038.03
2023-01-13T07:29:44.491Z,100047.94
2023-01-13T07:32:48.222Z,100047.47
2023-01-13T07:35:58.117Z,100053.63
2023-01-13T07:39:01.902Z,100050.72
2023-01-13T07:42:23.463Z,100051.47
2023-01-13T07:45:28.720Z,100055.44
2023-01-13T07:48:33.877Z,100062.25
2023-01-13T07:51:38.671Z,100066.03
2023-01-13T07:54:42.372Z,100050.03
2023-01-13T07:57:46.251Z,100060.91
2023-01-13T08:00:51.712Z,100062.56
2023-01-13T08:03:56.342Z,100061.44
2023-01-13T08:07:00.266Z,100070.50
2023-01-13T08:10:03.971Z,100070.97
2023-01-13T08:13:21.319Z,100069.13
2023-01-13T08:16:26.703Z,100071.91
2023-01-13T08:19:30.562Z,100070.13
2023-01-13T08:22:34.534Z,100081.44
2023-01-13T08:25:38.262Z,100077.25
2023-01-13T08:28:41.961Z,100077.81
2023-01-13T08:31:47.244Z,100080.28
2023-01-13T08:34:50.896Z,100074.28
2023-01-13T08:37:55.113Z,100087.00
2023-01-13T08:40:58.881Z,100086.84
2023-01-13T08:44:02.611Z,100081.84
2023-01-13T08:47:08.042Z,100085.78
2023-01-13T08:50:14.871Z,100083.25
2023-01-13T08:53:18.661Z,100086.00
2023-01-13T08:56:22.412Z,100087.91
2023-01-13T08:59:26.143Z,100084.50
2023-01-13T09:02:31.280Z,100086.72
2023-01-13T09:05:36.584Z,100081.81
2023-01-13T09:08:40.663Z,100078.16
2023-01-13T09:12:04.293Z,100076.72
2023-01-13T09:15:09.186Z,100074.00
2023-01-13T09:18:14.892Z,100066.91
2023-01-13T09:21:20.117Z,100070.09
2023-01-13T09:24:24.979Z,100068.66
2023-01-13T09:27:28.752Z,100065.44
2023-01-13T09:30:32.501Z,100060.72
2023-01-13T09:33:55.255Z,100056.53
2023-01-13T09:36:58.882Z,100061.22
2023-01-13T09:40:03.227Z,100062.81
2023-01-13T09:43:36.289Z,100062.56
2023-01-13T09:46:47.498Z,100062.19
2023-01-13T09:49:53.554Z,100050.13
2023-01-13T09:52:57.721Z,100047.31
2023-01-13T09:56:02.392Z,100046.25
2023-01-13T09:59:06.847Z,100045.44
2023-01-13T10:02:42.972Z,100040.09
2023-01-13T10:05:56.782Z,100035.25
2023-01-13T10:09:00.895Z,100032.63
2023-01-13T10:12:24.473Z,100033.69
2023-01-13T10:15:28.714Z,100027.25
2023-01-13T10:18:44.844Z,100023.03
2023-01-13T10:22:20.582Z,100014.19
2023-01-13T10:25:34.463Z,100014.09
2023-01-13T10:28:38.030Z,100008.59
2023-01-13T10:31:41.783Z,100005.97
2023-01-13T10:34:50.196Z,99996.22
2023-01-13T10:37:58.789Z,100000.66
2023-01-13T10:41:04.876Z,99993.75
2023-01-13T10:44:17.275Z,99985.81
2023-01-13T10:47:27.134Z,99990.91
2023-01-13T10:50:31.929Z,99987.19
2023-01-13T10:53:47.318Z,99987.19
2023-01-13T10:57:11.453Z,99981.59
2023-01-13T11:00:28.557Z,99978.84
2023-01-13T11:03:41.950Z,99984.81
2023-01-13T11:06:48.092Z,99975.91
2023-01-13T11:10:11.725Z,99966.25
2023-01-13T11:13:18.357Z,99960.44
2023-01-13T11:16:22.641Z,99968.00
2023-01-13T11:19:30.452Z,99966.50
2023-01-13T11:22:39.554Z,99959.72
2023-01-13T11:25:48.842Z,99953.97
2023-01-13T11:29:01.783Z,99959.34
2023-01-13T11:32:13.706Z,99962.81
2023-01-13T11:35:20.032Z,99955.78
2023-01-13T11:38:33.834Z,99954.91
2023-01-13T11:41:45.760Z,99948.44
2023-01-13T11:45:03.340Z,99947.06
2023-01-13T11:48:07.751Z,99945.72
2023-01-13T11:51:24.169Z,99959.13
2023-01-13T11:54:46.333Z,99955.91
2023-01-13T11:58:04.047Z,99959.47
2023-01-13T12:01:23.167Z,99953.13
2023-01-13T12:04:32.751Z,99956.22
2023-01-13T12:07:45.739Z,99955.84
2023-01-13T12:11:02.814Z,99956.28
2023-01-13T12:14:21.402Z,99948.41
2023-01-13T12:17:35.865Z,99949.09
2023-01-13T12:20:48.814Z,99943.03
2023-01-13T12:24:02.292Z,99935.44
2023-01-13T12:27:12.685Z,99936.22
2023-01-13T12:30:27.126Z,99931.84
2023-01-13T12:33:46.147Z,99932.41
2023-01-13T12:36:59.042Z,99936.41
2023-01-13T12:40:20.960Z,99938.50
2023-01-13T12:43:43.224Z,99941.38
2023-01-13T12:46:56.289Z,99935.50
2023-01-13T12:50:41.007Z,99940.13
2023-01-13T12:53:44.831Z,99941.94
2023-01-13T12:56:48.659Z,99938.53
2023-01-13T13:00:15.130Z,99940.69
2023-01-13T13:03:38.269Z,99943.72
2023-01-13T13:06:44.704Z,99941.94
2023-01-13T13:09:54.697Z,99948.28
2023-01-13T13:13:19.376Z,99948.97
2023-01-13T13:16:50.557Z,99940.94
2023-01-13T13:19:57.159Z,99952.75
2023-01-13T13:23:00.955Z,99947.25
2023-01-13T13:26:16.272Z,99952.69
2023-01-13T13:29:51.493Z,99948.25
2023-01-13T13:33:10.981Z,99961.06
2023-01-13T13:36:36.963Z,99957.75
2023-01-13T13:40:06.660Z,99957.09
2023-01-13T13:43:32.521Z,99961.34
2023-01-13T13:46:48.757Z,99964.22
2023-01-13T13:49:54.799Z,99958.75
2023-01-13T13:53:05.629Z,99962.56
2023-01-13T13:56:20.521Z,99966.41
2023-01-13T13:59:27.092Z,99968.19
2023-01-13T14:02:34.337Z,99967.22
2023-01-13T14:05:39.031Z,99966.69
2023-01-13T14:08:51.686Z,99959.13
2023-01-13T14:12:02.061Z,99960.63
2023-01-13T14:15:06.567Z,99976.19
2023-01-13T14:18:15.627Z,99976.16
2023-01-13T14:21:22.024Z,99968.19
2023-01-13T14:24:27.485Z,99976.44
2023-01-13T14:27:32.207Z,99974.91
2023-01-13T14:30:36.274Z,99979.19
2023-01-13T14:33:43.031Z,99976.16
2023-01-13T14:36:51.253Z,99979.84
2023-01-13T14:39:56.554Z,99983.41
2023-01-13T14:43:01.077Z,99989.56
2023-01-13T14:46:05.016Z,99986.31
2023-01-13T14:49:25.139Z,99994.00
2023-01-13T14:52:31.114Z,99989.63
2023-01-13T14:55:38.881Z,99999.53
2023-01-13T14:58:42.652Z,99998.16
2023-01-13T15:01:46.444Z,99994.88
2023-01-13T15:04:54.146Z,99996.66
2023-01-13T15:08:01.176Z,99998.94
2023-01-13T15:11:09.107Z,100001.16
2023-01-13T15:14:13.161Z,99994.41
2023-01-13T15:17:18.923Z,99999.00
2023-01-13T15:20:24.600Z,100003.44
2023-01-13T15:23:28.425Z,100002.06
2023-01-13T15:26:35.190Z,100007.69
2023-01-13T15:29:38.855Z,100009.88
2023-01-13T15:32:42.924Z,100015.41
2023-01-13T15:35:48.615Z,100011.94
2023-01-13T15:38:52.535Z,100015.66
2023-01-13T15:42:12.417Z,100016.69
2023-01-13T15:45:33.583Z,100023.41
2023-01-13T15:48:37.398Z,100017.22
2023-01-13T15:51:42.043Z,100026.44
2023-01-13T15:54:45.822Z,100021.81
2023-01-13T15:57:52.039Z,100024.84
2023-01-13T16:00:55.962Z,100019.75
2023-01-13T16:03:59.860Z,100019.72
2023-01-13T16:07:03.618Z,100017.41
2023-01-13T16:10:16.255Z,100022.28
2023-01-13T16:13:21.435Z,100016.28
2023-01-13T16:16:27.438Z,100020.72
2023-01-13T16:19:31.265Z,100019.44
2023-01-13T16:22:35.111Z,100027.84
2023-01-13T16:25:38.930Z,100029.19
2023-01-13T16:28:44.115Z,100023.13
2023-01-13T16:31:47.912Z,100024.25
2023-01-13T16:34:51.826Z,100022.19
2023-01-13T16:37:58.544Z,100025.53
2023-01-13T16:41:02.210Z,100020.94
2023-01-13T16:44:07.496Z,100026.19
2023-01-13T16:47:15.534Z,100029.25
2023-01-13T16:50:35.199Z,100032.91
2023-01-13T16:53:38.954Z,100032.25
2023-01-13T16:56:42.712Z,100035.66
2023-01-13T16:59:48.162Z,100026.28
2023-01-13T17:02:52.159Z,100031.09
2023-01-13T17:05:55.959Z,100036.72
2023-01-13T17:09:03.321Z,100032.53
2023-01-13T17:12:07.471Z,100031.47
2023-01-13T17:15:15.124Z,100033.53
2023-01-13T17:18:18.853Z,100037.25
2023-01-13T17:21:22.525Z,100043.03
2023-01-13T17:24:26.293Z,100038.03
2023-01-13T17:27:30.096Z,100030.78
2023-01-13T17:30:36.496Z,100028.22
2023-01-13T17:33:40.428Z,100025.13
2023-01-13T17:36:44.215Z,100031.72
2023-01-13T17:39:48.789Z,100032.47
2023-01-13T17:42:52.555Z,100024.28
2023-01-13T17:45:58.058Z,100025.69
2023-01-13T17:49:01.881Z,100021.63
2023-01-13T17:52:05.803Z,100025.94
2023-01-13T17:55:10.323Z,100032.22
2023-01-13T17:58:13.951Z,100021.13
2023-01-13T18:01:21.250Z,100033.72
2023-01-13T18:04:28.289Z,100033.16
2023-01-13T18:07:32.112Z,100033.16
2023-01-13T18:10:35.927Z,100036.41
2023-01-13T18:13:40.066Z,100029.78
2023-01-13T18:16:45.393Z,100029.00
2023-01-13T18:20:06.318Z,100032.00
2023-01-13T18:23:34.765Z,100035.56
2023-01-13T18:26:56.047Z,100031.88
2023-01-13T18:30:01.081Z,100041.38
2023-01-13T18:33:06.366Z,100038.34
2023-01-13T18:36:10.906Z,100041.75
2023-01-13T18:39:14.896Z,100047.41
2023-01-13T18:42:44.344Z,100049.66
2023-01-13T18:45:51.882Z,100041.06
2023-01-13T18:48:57.069Z,100050.53
2023-01-13T18:52:00.797Z,100045.75
2023-01-13T18:55:04.633Z,100043.41
2023-01-13T18:58:08.215Z,100047.28
2023-01-13T19:01:12.105Z,100043.66
2023-01-13T19:04:18.664Z,100046.91
2023-01-13T19:07:24.784Z,100039.47
2023-01-13T19:10:32.016Z,100052.94
2023-01-13T19:13:37.094Z,100041.88
2023-01-13T19:16:41.008Z,100049.13
2023-01-13T19:19:47.686Z,100042.44
2023-01-13T19:22:54.581Z,100043.84
2023-01-13T19:26:00.414Z,100047.84
2023-01-13T19:29:04.213Z,100041.91
2023-01-13T19:32:08.276Z,100046.59
2023-01-13T19:35:17.619Z,100046.03
2023-01-13T19:38:21.356Z,100056.25
2023-01-13T19:41:42.389Z,100054.81
2023-01-13T19:45:03.077Z,100056.03
2023-01-13T19:48:08.631Z,100057.81
2023-01-13T19:51:14.856Z,100060.97
2023-01-13T19:54:18.729Z,100062.13
2023-01-13T19:57:22.668Z,100058.53
2023-01-13T20:00:26.768Z,100056.91
2023-01-13T20:03:36.014Z,100054.56
2023-01-13T20:06:41.340Z,100057.84
2023-01-13T20:09:45.807Z,100058.94
2023-01-13T20:12:49.698Z,100065.66
2023-01-13T20:15:53.359Z,100059.00
2023-01-13T20:18:57.798Z,100053.16
2023-01-13T20:22:02.931Z,100057.91
2023-01-13T20:25:07.767Z,100054.88
2023-01-13T20:28:11.550Z,100062.06
2023-01-13T20:31:16.082Z,100052.00
2023-01-13T20:34:20.171Z,100056.84
2023-01-13T20:37:25.335Z,100057.44
2023-01-13T20:40:29.139Z,100055.81
2023-01-13T20:43:31.788Z,100055.19
2023-01-13T20:46:35.566Z,100060.59
2023-01-13T20:49:39.438Z,100056.22
2023-01-13T20:52:45.198Z,100066.63
2023-01-13T20:55:48.873Z,100062.22
2023-01-13T20:58:52.677Z,100064.66
2023-01-13T21:01:56.463Z,100065.56
2023-01-13T21:05:00.142Z,100065.03
2023-01-13T21:08:05.836Z,100067.09
2023-01-13T21:11:10.818Z,100066.28
2023-01-13T21:14:34.203Z,100069.59
2023-01-13T21:17:55.412Z,100066.66
2023-01-13T21:21:11.860Z,100066.72
2023-01-13T21:24:17.219Z,100065.38
2023-01-13T21:27:21.409Z,100070.84
2023-01-13T21:30:25.189Z,100064.88
2023-01-13T21:33:30.099Z,100059.00
2023-01-13T21:36:33.883Z,100057.50
2023-01-13T21:39:39.090Z,100057.56
2023-01-13T21:43:00.520Z,100059.28
2023-01-13T21:46:21.451Z,100049.84
2023-01-13T21:49:25.349Z,100051.50
2023-01-13T21:52:29.474Z,100043.47
2023-01-13T21:55:34.910Z,100046.31
2023-01-13T21:58:40.232Z,100043.09
2023-01-13T22:02:08.769Z,100037.34
2023-01-13T22:05:08.975Z,100036.59
2023-01-13T22:08:14.667Z,100037.31
2023-01-13T22:11:19.817Z,100028.50
2023-01-13T22:14:24.674Z,100031.09
2023-01-13T22:17:31.849Z,100021.31
2023-01-13T22:20:35.540Z,100016.34
2023-01-13T22:23:39.300Z,100020.34
2023-01-13T22:26:44.663Z,100014.50
2023-01-13T22:29:49.541Z,100013.66
2023-01-13T22:32:53.384Z,100018.59
2023-01-13T22:35:57.433Z,100015.13
2023-01-13T22:39:01.721Z,100010.84
2023-01-13T22:42:07.807Z,100006.47
2023-01-13T22:45:14.398Z,100004.13
2023-01-13T22:48:18.201Z,99999.72
2023-01-13T22:51:23.026Z,100001.66
2023-01-13T22:54:26.863Z,100005.22
2023-01-13T22:57:36.669Z,100002.13
2023-01-13T23:00:50.400Z,100001.56
2023-01-13T23:03:55.046Z,100007.34
2023-01-13T23:07:00.167Z,99999.06
2023-01-13T23:10:04.034Z,100009.25
2023-01-13T23:13:10.672Z,100003.94
2023-01-13T23:16:16.650Z,99998.22
2023-01-13T23:19:20.404Z,99993.88
2023-01-13T23:22:24.102Z,100005.22
2023-01-13T23:25:27.930Z,100010.16
2023-01-13T23:28:34.603Z,100001.44
2023-01-13T23:31:38.391Z,100001.09
2023-01-13T23:34:42.185Z,99998.00
2023-01-13T23:37:45.961Z,100004.03
2023-01-13T23:40:49.603Z,100008.88
2023-01-13T23:43:58.228Z,100008.41
2023-01-13T23:47:01.839Z,100001.66
2023-01-13T23:50:05.999Z,100009.81
2023-01-13T23:53:10.211Z,100022.91
2023-01-13T23:56:16.043Z,100016.28
2023-01-13T23:59:21.437Z,100023.84
